Addis, Louisiana
Current Conditions -  °F | °C
As of 4:53 AM on Saturday 22 Nov 2014 (Local Time) from KBTR Reporting Station
Broken Clouds Broken Clouds  
Wind Chill: 53°   Ceiling: 3600
Heat Index: 53°   Visibility: 10mi
Dew Point: 48°   Wind: 8mph
Humidity: 83%   Direction: 70°ENE
Pressure: 30.21"   Gusts: NA
Location:  30.35°N, 91.27°W
Report Text: KBTR 221053Z AUTO 07007KT 10SM BKN036 12/09 A3021 RMK AO2 SLP227 T01170089 TSNO
Loading
Personal Weather Stations






























Interactive Weather Map New forecast layout! Learn more

10-Day Weather Forecast

Advertisements
Track Severe Weather on mobile